sensor_id;sensor_type;location;lat;lon;timestamp;pressure;altitude;pressure_sealevel;temperature;humidity
7668;BME280;3876;42.204;24.686;2023-05-22T00:02:21;99082.56;;;18.34;100.00
7668;BME280;3876;42.204;24.686;2023-05-22T00:04:49;99079.22;;;18.32;100.00
7668;BME280;3876;42.204;24.686;2023-05-22T00:07:16;99073.22;;;18.31;100.00
7668;BME280;3876;42.204;24.686;2023-05-22T00:09:44;99076.81;;;18.29;100.00
7668;BME280;3876;42.204;24.686;2023-05-22T00:12:10;99074.13;;;18.30;100.00
7668;BME280;3876;42.204;24.686;2023-05-22T00:14:37;99064.38;;;18.21;100.00
7668;BME280;3876;42.204;24.686;2023-05-22T00:17:06;99065.59;;;18.16;100.00
7668;BME280;3876;42.204;24.686;2023-05-22T00:19:34;99075.81;;;18.19;100.00
7668;BME280;3876;42.204;24.686;2023-05-22T00:22:01;99078.69;;;18.14;100.00
7668;BME280;3876;42.204;24.686;2023-05-22T00:24:28;99080.44;;;18.14;100.00
7668;BME280;3876;42.204;24.686;2023-05-22T00:26:56;99079.72;;;18.12;100.00
7668;BME280;3876;42.204;24.686;2023-05-22T00:29:23;99079.94;;;18.09;100.00
7668;BME280;3876;42.204;24.686;2023-05-22T00:31:49;99088.72;;;18.06;100.00
7668;BME280;3876;42.204;24.686;2023-05-22T00:34:16;99077.34;;;18.09;100.00
7668;BME280;3876;42.204;24.686;2023-05-22T00:36:43;99080.84;;;18.08;100.00
7668;BME280;3876;42.204;24.686;2023-05-22T00:39:10;99090.41;;;18.07;100.00
7668;BME280;3876;42.204;24.686;2023-05-22T00:41:37;99089.56;;;18.07;100.00
7668;BME280;3876;42.204;24.686;2023-05-22T00:44:05;99090.59;;;18.04;100.00
7668;BME280;3876;42.204;24.686;2023-05-22T00:46:32;99088.72;;;18.06;100.00
7668;BME280;3876;42.204;24.686;2023-05-22T00:48:59;99087.06;;;18.05;100.00
7668;BME280;3876;42.204;24.686;2023-05-22T00:51:26;99088.72;;;18.06;100.00
7668;BME280;3876;42.204;24.686;2023-05-22T00:53:53;99085.19;;;18.07;100.00
7668;BME280;3876;42.204;24.686;2023-05-22T00:56:20;99092.16;;;18.07;100.00
7668;BME280;3876;42.204;24.686;2023-05-22T00:58:47;99085.31;;;18.06;100.00
7668;BME280;3876;42.204;24.686;2023-05-22T01:01:15;99082.72;;;18.06;100.00
7668;BME280;3876;42.204;24.686;2023-05-22T01:03:43;99082.72;;;18.06;100.00
7668;BME280;3876;42.204;24.686;2023-05-22T01:06:11;99086.97;;;18.07;100.00
7668;BME280;3876;42.204;24.686;2023-05-22T01:08:38;99085.19;;;18.07;100.00
7668;BME280;3876;42.204;24.686;2023-05-22T01:11:09;99064.63;;;17.92;100.00
7668;BME280;3876;42.204;24.686;2023-05-22T01:13:49;99081.06;;;18.05;100.00
7668;BME280;3876;42.204;24.686;2023-05-22T01:16:25;99084.56;;;18.04;100.00
7668;BME280;3876;42.204;24.686;2023-05-22T01:18:59;99087.28;;;18.02;100.00
7668;BME280;3876;42.204;24.686;2023-05-22T01:21:34;99081.66;;;17.96;100.00
7668;BME280;3876;42.204;24.686;2023-05-22T01:27:40;99076.88;;;17.90;100.00
7668;BME280;3876;42.204;24.686;2023-05-22T01:30:41;99074.66;;;17.83;100.00
7668;BME280;3876;42.204;24.686;2023-05-22T01:33:13;99055.47;;;17.73;100.00
7668;BME280;3876;42.204;24.686;2023-05-22T01:35:40;99047.97;;;17.69;100.00
7668;BME280;3876;42.204;24.686;2023-05-22T01:38:09;99070.44;;;17.82;100.00
7668;BME280;3876;42.204;24.686;2023-05-22T01:40:37;99068.03;;;17.79;100.00
7668;BME280;3876;42.204;24.686;2023-05-22T01:43:04;99057.31;;;17.71;100.00
7668;BME280;3876;42.204;24.686;2023-05-22T01:45:30;99062.09;;;17.77;100.00
7668;BME280;3876;42.204;24.686;2023-05-22T01:47:59;99072.47;;;17.77;100.00
7668;BME280;3876;42.204;24.686;2023-05-22T01:50:26;99067.28;;;17.77;100.00
7668;BME280;3876;42.204;24.686;2023-05-22T01:52:58;99071.66;;;17.77;100.00
7668;BME280;3876;42.204;24.686;2023-05-22T01:55:34;99070.81;;;17.76;100.00
7668;BME280;3876;42.204;24.686;2023-05-22T01:58:12;99074.13;;;17.78;100.00
7668;BME280;3876;42.204;24.686;2023-05-22T02:00:42;99070.63;;;17.79;100.00
7668;BME280;3876;42.204;24.686;2023-05-22T02:03:17;99070.00;;;17.76;100.00
7668;BME280;3876;42.204;24.686;2023-05-22T02:05:46;99065.09;;;17.71;100.00
7668;BME280;3876;42.204;24.686;2023-05-22T02:08:19;99073.06;;;17.68;100.00
7668;BME280;3876;42.204;24.686;2023-05-22T02:10:47;99069.75;;;17.66;100.00
7668;BME280;3876;42.204;24.686;2023-05-22T02:13:15;99066.19;;;17.67;100.00
7668;BME280;3876;42.204;24.686;2023-05-22T02:15:44;99080.84;;;17.68;100.00
7668;BME280;3876;42.204;24.686;2023-05-22T02:18:12;99075.56;;;17.70;100.00
7668;BME280;3876;42.204;24.686;2023-05-22T02:20:40;99074.72;;;17.69;100.00
7668;BME280;3876;42.204;24.686;2023-05-22T02:23:06;99075.47;;;17.71;100.00
7668;BME280;3876;42.204;24.686;2023-05-22T02:25:33;99079.59;;;17.74;100.00
7668;BME280;3876;42.204;24.686;2023-05-22T02:28:00;99077.84;;;17.74;100.00
7668;BME280;3876;42.204;24.686;2023-05-22T02:30:27;99076.41;;;17.70;100.00
7668;BME280;3876;42.204;24.686;2023-05-22T02:32:54;99074.72;;;17.69;100.00
7668;BME280;3876;42.204;24.686;2023-05-22T02:35:23;99081.59;;;17.70;100.00
7668;BME280;3876;42.204;24.686;2023-05-22T02:37:49;99074.81;;;17.68;100.00
7668;BME280;3876;42.204;24.686;2023-05-22T02:40:16;99084.34;;;17.67;100.00
7668;BME280;3876;42.204;24.686;2023-05-22T02:42:43;99087.16;;;17.64;100.00
7668;BME280;3876;42.204;24.686;2023-05-22T02:45:10;99082.06;;;17.63;100.00
7668;BME280;3876;42.204;24.686;2023-05-22T02:47:37;99080.31;;;17.63;100.00
7668;BME280;3876;42.204;24.686;2023-05-22T02:50:05;99051.81;;;17.49;100.00
7668;BME280;3876;42.204;24.686;2023-05-22T02:52:33;99075.13;;;17.63;100.00
7668;BME280;3876;42.204;24.686;2023-05-22T02:55:01;99069.50;;;17.57;100.00
7668;BME280;3876;42.204;24.686;2023-05-22T02:57:28;99075.13;;;17.63;100.00
7668;BME280;3876;42.204;24.686;2023-05-22T02:59:55;99075.53;;;17.57;100.00
7668;BME280;3876;42.204;24.686;2023-05-22T03:02:24;99065.88;;;17.59;100.00
7668;BME280;3876;42.204;24.686;2023-05-22T03:04:52;99079.28;;;17.66;100.00
7668;BME280;3876;42.204;24.686;2023-05-22T03:07:19;99073.47;;;17.62;100.00
7668;BME280;3876;42.204;24.686;2023-05-22T03:09:47;99072.53;;;17.63;100.00
7668;BME280;3876;42.204;24.686;2023-05-22T03:12:14;99063.28;;;17.59;100.00
7668;BME280;3876;42.204;24.686;2023-05-22T03:14:41;99078.66;;;17.62;100.00
7668;BME280;3876;42.204;24.686;2023-05-22T03:17:08;99071.78;;;17.61;100.00
7668;BME280;3876;42.204;24.686;2023-05-22T03:19:34;99070.16;;;17.60;100.00
7668;BME280;3876;42.204;24.686;2023-05-22T03:22:01;99071.97;;;17.58;100.00
7668;BME280;3876;42.204;24.686;2023-05-22T03:24:28;99062.91;;;17.51;100.00
7668;BME280;3876;42.204;24.686;2023-05-22T03:26:58;99079.88;;;17.57;100.00
7668;BME280;3876;42.204;24.686;2023-05-22T03:29:25;99078.19;;;17.56;100.00
7668;BME280;3876;42.204;24.686;2023-05-22T03:31:55;99067.38;;;17.49;100.00
7668;BME280;3876;42.204;24.686;2023-05-22T03:34:22;99074.03;;;17.53;100.00
7668;BME280;3876;42.204;24.686;2023-05-22T03:36:49;99061.53;;;17.46;100.00
7668;BME280;3876;42.204;24.686;2023-05-22T03:39:15;99079.41;;;17.50;100.00
7668;BME280;3876;42.204;24.686;2023-05-22T03:41:42;99077.72;;;17.49;100.00
7668;BME280;3876;42.204;24.686;2023-05-22T03:44:10;99073.13;;;17.40;100.00
7668;BME280;3876;42.204;24.686;2023-05-22T03:46:37;99071.84;;;17.33;100.00
7668;BME280;3876;42.204;24.686;2023-05-22T03:49:04;99072.97;;;17.29;100.00
7668;BME280;3876;42.204;24.686;2023-05-22T03:51:30;99074.63;;;17.30;100.00
7668;BME280;3876;42.204;24.686;2023-05-22T03:53:57;99071.84;;;17.33;100.00
7668;BME280;3876;42.204;24.686;2023-05-22T03:56:24;99074.16;;;17.38;100.00
7668;BME280;3876;42.204;24.686;2023-05-22T03:58:51;99082.47;;;17.43;100.00
7668;BME280;3876;42.204;24.686;2023-05-22T04:01:19;99081.25;;;17.48;100.00
7668;BME280;3876;42.204;24.686;2023-05-22T04:03:46;99089.56;;;17.53;100.00
7668;BME280;3876;42.204;24.686;2023-05-22T04:06:13;99090.69;;;17.63;100.00
7668;BME280;3876;42.204;24.686;2023-05-22T04:08:40;99093.81;;;17.68;100.00
7668;BME280;3876;42.204;24.686;2023-05-22T04:11:06;99089.69;;;17.78;100.00
7668;BME280;3876;42.204;24.686;2023-05-22T04:13:33;99089.22;;;17.86;100.00
7668;BME280;3876;42.204;24.686;2023-05-22T04:16:00;99093.06;;;17.93;100.00
7668;BME280;3876;42.204;24.686;2023-05-22T04:18:29;99086.84;;;17.96;100.00
7668;BME280;3876;42.204;24.686;2023-05-22T04:20:56;99083.66;;;18.05;100.00
7668;BME280;3876;42.204;24.686;2023-05-22T04:23:23;99077.53;;;18.06;100.00
7668;BME280;3876;42.204;24.686;2023-05-22T04:25:50;99084.38;;;18.19;100.00
7668;BME280;3876;42.204;24.686;2023-05-22T04:28:17;99072.38;;;18.18;100.00
7668;BME280;3876;42.204;24.686;2023-05-22T04:30:46;99086.28;;;18.30;100.00
7668;BME280;3876;42.204;24.686;2023-05-22T04:33:13;99085.56;;;18.28;100.00
7668;BME280;3876;42.204;24.686;2023-05-22T04:35:42;99081.41;;;18.25;100.00
7668;BME280;3876;42.204;24.686;2023-05-22T04:38:08;99086.50;;;18.27;100.00
7668;BME280;3876;42.204;24.686;2023-05-22T04:40:35;99083.81;;;18.28;100.00
7668;BME280;3876;42.204;24.686;2023-05-22T04:43:02;99091.69;;;18.27;100.00
7668;BME280;3876;42.204;24.686;2023-05-22T04:45:29;99085.44;;;18.29;100.00
7668;BME280;3876;42.204;24.686;2023-05-22T04:47:57;99087.19;;;18.29;100.00
7668;BME280;3876;42.204;24.686;2023-05-22T04:50:26;99093.56;;;18.25;100.00
7668;BME280;3876;42.204;24.686;2023-05-22T04:52:56;99095.19;;;18.26;100.00
7668;BME280;3876;42.204;24.686;2023-05-22T04:55:23;99086.69;;;18.24;100.00
7668;BME280;3876;42.204;24.686;2023-05-22T04:57:50;99091.97;;;18.22;100.00
7668;BME280;3876;42.204;24.686;2023-05-22T05:00:18;99090.41;;;18.20;100.00
7668;BME280;3876;42.204;24.686;2023-05-22T05:02:50;99095.59;;;18.07;100.00
7668;BME280;3876;42.204;24.686;2023-05-22T05:05:17;99081.31;;;17.88;100.00
7668;BME280;3876;42.204;24.686;2023-05-22T05:07:45;99095.56;;;17.95;100.00
7668;BME280;3876;42.204;24.686;2023-05-22T05:10:16;99107.41;;;17.99;100.00
7668;BME280;3876;42.204;24.686;2023-05-22T05:12:45;99101.59;;;18.08;100.00
7668;BME280;3876;42.204;24.686;2023-05-22T05:15:12;99096.00;;;18.14;100.00
7668;BME280;3876;42.204;24.686;2023-05-22T05:17:39;99100.78;;;18.20;100.00
7668;BME280;3876;42.204;24.686;2023-05-22T05:20:06;99095.19;;;18.13;100.00
7668;BME280;3876;42.204;24.686;2023-05-22T05:22:33;99100.59;;;18.23;100.00
7668;BME280;3876;42.204;24.686;2023-05-22T05:25:01;99098.94;;;18.22;100.00
7668;BME280;3876;42.204;24.686;2023-05-22T05:27:30;99112.00;;;18.20;100.00
7668;BME280;3876;42.204;24.686;2023-05-22T05:29:57;99114.53;;;18.22;100.00
7668;BME280;3876;42.204;24.686;2023-05-22T05:32:25;99096.72;;;18.16;100.00
7668;BME280;3876;42.204;24.686;2023-05-22T05:34:52;99112.03;;;18.33;100.00
7668;BME280;3876;42.204;24.686;2023-05-22T05:37:19;99108.59;;;18.45;100.00
7668;BME280;3876;42.204;24.686;2023-05-22T05:39:45;99104.81;;;18.63;100.00
7668;BME280;3876;42.204;24.686;2023-05-22T05:42:12;99106.56;;;18.88;100.00
7668;BME280;3876;42.204;24.686;2023-05-22T05:44:40;99112.06;;;19.09;100.00
7668;BME280;3876;42.204;24.686;2023-05-22T05:47:07;99109.09;;;19.26;100.00
7668;BME280;3876;42.204;24.686;2023-05-22T05:49:34;99123.25;;;19.34;100.00
7668;BME280;3876;42.204;24.686;2023-05-22T05:52:01;99125.63;;;19.50;100.00
7668;BME280;3876;42.204;24.686;2023-05-22T05:54:28;99133.06;;;19.67;100.00
7668;BME280;3876;42.204;24.686;2023-05-22T05:56:55;99134.31;;;19.85;100.00
7668;BME280;3876;42.204;24.686;2023-05-22T05:59:22;99127.44;;;19.84;100.00
7668;BME280;3876;42.204;24.686;2023-05-22T06:01:50;99134.88;;;20.02;100.00
7668;BME280;3876;42.204;24.686;2023-05-22T06:04:17;99136.69;;;20.36;100.00
7668;BME280;3876;42.204;24.686;2023-05-22T06:06:43;99135.94;;;20.69;100.00
7668;BME280;3876;42.204;24.686;2023-05-22T06:24:32;99155.38;;;22.39;92.16
7668;BME280;3876;42.204;24.686;2023-05-22T06:26:59;99160.66;;;22.49;89.77
7668;BME280;3876;42.204;24.686;2023-05-22T06:29:29;99159.03;;;22.48;87.59
7668;BME280;3876;42.204;24.686;2023-05-22T06:31:56;99164.25;;;22.48;88.36
7668;BME280;3876;42.204;24.686;2023-05-22T06:34:23;99164.41;;;22.67;89.72
7668;BME280;3876;42.204;24.686;2023-05-22T06:36:51;99159.03;;;22.89;89.47
7668;BME280;3876;42.204;24.686;2023-05-22T06:39:18;99165.75;;;23.13;88.82
7668;BME280;3876;42.204;24.686;2023-05-22T06:41:47;99169.41;;;23.31;85.15
7668;BME280;3876;42.204;24.686;2023-05-22T06:44:13;99170.25;;;23.31;86.47
7668;BME280;3876;42.204;24.686;2023-05-22T06:46:40;99163.50;;;23.29;86.71
7668;BME280;3876;42.204;24.686;2023-05-22T06:49:07;99163.03;;;23.24;82.98
7668;BME280;3876;42.204;24.686;2023-05-22T06:51:34;99172.69;;;23.53;84.52
7668;BME280;3876;42.204;24.686;2023-05-22T06:54:00;99178.13;;;23.71;83.25
7668;BME280;3876;42.204;24.686;2023-05-22T06:56:28;99178.94;;;23.81;81.13
7668;BME280;3876;42.204;24.686;2023-05-22T06:58:57;99180.59;;;23.82;81.63
7668;BME280;3876;42.204;24.686;2023-05-22T07:01:24;99171.91;;;23.72;80.02
7668;BME280;3876;42.204;24.686;2023-05-22T07:03:51;99184.66;;;23.56;77.71
7668;BME280;3876;42.204;24.686;2023-05-22T07:06:17;99178.59;;;23.56;79.30
7668;BME280;3876;42.204;24.686;2023-05-22T07:08:44;99175.38;;;23.82;78.56
7668;BME280;3876;42.204;24.686;2023-05-22T07:11:11;99180.34;;;23.95;75.34
7668;BME280;3876;42.204;24.686;2023-05-22T07:13:38;99177.59;;;23.96;76.70
7668;BME280;3876;42.204;24.686;2023-05-22T07:16:06;99172.94;;;24.00;73.21
7668;BME280;3876;42.204;24.686;2023-05-22T07:18:33;99179.84;;;24.20;73.71
7668;BME280;3876;42.204;24.686;2023-05-22T07:21:00;99181.78;;;24.37;72.93
7668;BME280;3876;42.204;24.686;2023-05-22T07:23:27;99186.75;;;24.50;72.98
7668;BME280;3876;42.204;24.686;2023-05-22T07:25:54;99183.16;;;24.32;69.93
7668;BME280;3876;42.204;24.686;2023-05-22T07:28:20;99182.19;;;24.14;72.87
7668;BME280;3876;42.204;24.686;2023-05-22T07:30:47;99175.66;;;23.98;70.54
7668;BME280;3876;42.204;24.686;2023-05-22T07:33:15;99174.00;;;23.97;74.24
7668;BME280;3876;42.204;24.686;2023-05-22T07:35:42;99185.09;;;24.20;69.96
7668;BME280;3876;42.204;24.686;2023-05-22T07:38:10;99188.97;;;24.35;71.37
7668;BME280;3876;42.204;24.686;2023-05-22T07:40:36;99186.75;;;24.50;70.96
7668;BME280;3876;42.204;24.686;2023-05-22T07:43:03;99190.06;;;24.42;73.17
7668;BME280;3876;42.204;24.686;2023-05-22T07:45:30;99182.88;;;24.54;74.18
7668;BME280;3876;42.204;24.686;2023-05-22T07:47:56;99182.31;;;24.60;72.73
7668;BME280;3876;42.204;24.686;2023-05-22T07:50:25;99165.50;;;24.34;72.49
7668;BME280;3876;42.204;24.686;2023-05-22T07:52:52;99185.63;;;24.43;72.96
7668;BME280;3876;42.204;24.686;2023-05-22T07:55:18;99188.25;;;24.43;72.60
7668;BME280;3876;42.204;24.686;2023-05-22T07:57:45;99173.78;;;24.48;73.90
7668;BME280;3876;42.204;24.686;2023-05-22T08:00:13;99164.53;;;24.54;75.30
7668;BME280;3876;42.204;24.686;2023-05-22T08:02:41;99181.22;;;24.53;73.24
7668;BME280;3876;42.204;24.686;2023-05-22T08:05:08;99173.75;;;24.68;74.36
7668;BME280;3876;42.204;24.686;2023-05-22T08:07:36;99172.06;;;24.95;71.64
7668;BME280;3876;42.204;24.686;2023-05-22T08:10:13;99169.16;;;24.79;69.06
7668;BME280;3876;42.204;24.686;2023-05-22T08:12:40;99180.63;;;24.78;68.17
7668;BME280;3876;42.204;24.686;2023-05-22T08:15:07;99175.94;;;24.72;67.27
7668;BME280;3876;42.204;24.686;2023-05-22T08:17:34;99172.66;;;24.70;71.81
7668;BME280;3876;42.204;24.686;2023-05-22T08:20:01;99185.09;;;24.59;71.09
7668;BME280;3876;42.204;24.686;2023-05-22T08:22:29;99169.09;;;24.52;72.32
7668;BME280;3876;42.204;24.686;2023-05-22T08:24:57;99176.78;;;24.63;70.38
7668;BME280;3876;42.204;24.686;2023-05-22T08:27:24;99181.31;;;24.80;64.80
7668;BME280;3876;42.204;24.686;2023-05-22T08:29:51;99177.94;;;25.17;64.04
7668;BME280;3876;42.204;24.686;2023-05-22T08:32:18;99180.88;;;25.41;62.05
7668;BME280;3876;42.204;24.686;2023-05-22T08:34:44;99173.75;;;25.61;58.86
7668;BME280;3876;42.204;24.686;2023-05-22T08:37:12;99177.81;;;25.73;58.92
7668;BME280;3876;42.204;24.686;2023-05-22T08:39:39;99179.78;;;25.88;63.51
7668;BME280;3876;42.204;24.686;2023-05-22T08:42:07;99173.44;;;25.91;63.92
7668;BME280;3876;42.204;24.686;2023-05-22T08:44:34;99174.47;;;25.98;59.78
7668;BME280;3876;42.204;24.686;2023-05-22T08:47:01;99173.44;;;26.08;59.17
7668;BME280;3876;42.204;24.686;2023-05-22T08:49:34;99173.75;;;26.05;60.32
7668;BME280;3876;42.204;24.686;2023-05-22T08:52:06;99168.66;;;26.04;60.62
7668;BME280;3876;42.204;24.686;2023-05-22T08:54:40;99169.00;;;26.09;62.89
7668;BME280;3876;42.204;24.686;2023-05-22T08:57:09;99174.25;;;25.91;61.68
7668;BME280;3876;42.204;24.686;2023-05-22T08:59:38;99166.78;;;25.69;59.06
7668;BME280;3876;42.204;24.686;2023-05-22T09:02:05;99159.25;;;25.84;62.45
7668;BME280;3876;42.204;24.686;2023-05-22T09:04:32;99165.94;;;26.14;65.07
7668;BME280;3876;42.204;24.686;2023-05-22T09:06:59;99161.31;;;26.43;61.37
7668;BME280;3876;42.204;24.686;2023-05-22T09:09:30;99152.41;;;26.61;64.25
7668;BME280;3876;42.204;24.686;2023-05-22T09:11:57;99159.47;;;26.61;58.58
7668;BME280;3876;42.204;24.686;2023-05-22T09:14:25;99154.94;;;26.71;61.92
7668;BME280;3876;42.204;24.686;2023-05-22T09:16:52;99156.56;;;26.72;60.26
7668;BME280;3876;42.204;24.686;2023-05-22T09:19:19;99151.06;;;26.40;58.38
7668;BME280;3876;42.204;24.686;2023-05-22T09:21:46;99167.31;;;26.18;58.82
7668;BME280;3876;42.204;24.686;2023-05-22T09:24:13;99158.53;;;26.27;59.98
7668;BME280;3876;42.204;24.686;2023-05-22T09:26:40;99156.19;;;26.24;59.90
7668;BME280;3876;42.204;24.686;2023-05-22T09:29:07;99157.19;;;26.23;59.71
7668;BME280;3876;42.204;24.686;2023-05-22T09:31:39;99164.06;;;26.24;58.95
7668;BME280;3876;42.204;24.686;2023-05-22T09:34:07;99158.81;;;26.24;57.90
7668;BME280;3876;42.204;24.686;2023-05-22T09:36:35;99155.38;;;26.23;58.13
7668;BME280;3876;42.204;24.686;2023-05-22T09:39:03;99156.13;;;26.33;58.92
7668;BME280;3876;42.204;24.686;2023-05-22T09:41:34;99157.47;;;26.37;57.23
7668;BME280;3876;42.204;24.686;2023-05-22T09:44:03;99164.16;;;26.32;55.15
7668;BME280;3876;42.204;24.686;2023-05-22T09:46:39;99166.63;;;26.16;54.21
7668;BME280;3876;42.204;24.686;2023-05-22T09:49:06;99167.03;;;26.11;56.58
7668;BME280;3876;42.204;24.686;2023-05-22T09:51:34;99154.53;;;25.87;56.39
7668;BME280;3876;42.204;24.686;2023-05-22T09:54:06;99157.66;;;26.08;58.42
7668;BME280;3876;42.204;24.686;2023-05-22T09:56:35;99162.53;;;25.86;57.53
7668;BME280;3876;42.204;24.686;2023-05-22T09:59:02;99157.06;;;25.79;55.73
7668;BME280;3876;42.204;24.686;2023-05-22T10:01:32;99151.81;;;25.79;54.99
7668;BME280;3876;42.204;24.686;2023-05-22T10:04:01;99150.72;;;25.72;55.23
7668;BME280;3876;42.204;24.686;2023-05-22T10:06:30;99144.09;;;25.95;57.25
7668;BME280;3876;42.204;24.686;2023-05-22T10:09:02;99144.88;;;26.23;57.71
7668;BME280;3876;42.204;24.686;2023-05-22T10:11:30;99134.81;;;26.36;59.00
7668;BME280;3876;42.204;24.686;2023-05-22T10:13:58;99149.88;;;26.52;55.43
7668;BME280;3876;42.204;24.686;2023-05-22T10:16:26;99144.19;;;26.65;55.53
7668;BME280;3876;42.204;24.686;2023-05-22T10:18:53;99138.44;;;26.61;56.33
7668;BME280;3876;42.204;24.686;2023-05-22T10:21:23;99126.28;;;26.86;60.07
7668;BME280;3876;42.204;24.686;2023-05-22T10:23:50;99133.16;;;27.12;58.65
7668;BME280;3876;42.204;24.686;2023-05-22T10:26:18;99133.09;;;27.38;56.88
7668;BME280;3876;42.204;24.686;2023-05-22T10:28:51;99132.38;;;27.20;50.86
7668;BME280;3876;42.204;24.686;2023-05-22T10:31:26;99139.84;;;27.41;52.84
7668;BME280;3876;42.204;24.686;2023-05-22T10:33:58;99111.84;;;27.32;53.76
7668;BME280;3876;42.204;24.686;2023-05-22T10:36:37;99134.56;;;27.33;52.51
7668;BME280;3876;42.204;24.686;2023-05-22T10:39:21;99133.59;;;27.42;52.13
7668;BME280;3876;42.204;24.686;2023-05-22T10:41:49;99138.59;;;27.45;50.90
7668;BME280;3876;42.204;24.686;2023-05-22T10:44:18;99131.84;;;27.50;52.63
7668;BME280;3876;42.204;24.686;2023-05-22T10:46:47;99134.19;;;27.61;50.41
7668;BME280;3876;42.204;24.686;2023-05-22T10:49:19;99132.06;;;27.73;50.51
7668;BME280;3876;42.204;24.686;2023-05-22T10:51:49;99123.16;;;27.66;52.31
7668;BME280;3876;42.204;24.686;2023-05-22T10:54:37;99117.53;;;27.53;51.90
7668;BME280;3876;42.204;24.686;2023-05-22T10:57:13;99107.34;;;27.66;55.21
7668;BME280;3876;42.204;24.686;2023-05-22T10:59:40;99110.34;;;27.79;54.17
7668;BME280;3876;42.204;24.686;2023-05-22T11:02:18;99109.69;;;27.85;52.74
7668;BME280;3876;42.204;24.686;2023-05-22T11:04:45;99101.00;;;27.93;52.49
7668;BME280;3876;42.204;24.686;2023-05-22T11:07:13;99086.81;;;27.78;52.55
7668;BME280;3876;42.204;24.686;2023-05-22T11:09:41;99098.00;;;27.72;51.27
7668;BME280;3876;42.204;24.686;2023-05-22T11:12:17;99088.91;;;27.66;50.09
7668;BME280;3876;42.204;24.686;2023-05-22T11:14:52;99096.00;;;27.57;49.93
7668;BME280;3876;42.204;24.686;2023-05-22T11:17:21;99096.63;;;27.51;50.29
7668;BME280;3876;42.204;24.686;2023-05-22T11:19:59;99096.69;;;27.26;53.45
7668;BME280;3876;42.204;24.686;2023-05-22T11:22:34;99089.19;;;26.71;56.43
7668;BME280;3876;42.204;24.686;2023-05-22T11:25:09;99094.47;;;26.53;57.48
7668;BME280;3876;42.204;24.686;2023-05-22T11:27:36;99096.44;;;25.90;60.01
7668;BME280;3876;42.204;24.686;2023-05-22T11:30:05;99092.13;;;25.54;64.42
7668;BME280;3876;42.204;24.686;2023-05-22T11:32:34;99085.66;;;25.48;66.97
7668;BME280;3876;42.204;24.686;2023-05-22T11:35:02;99093.53;;;25.48;67.77
7668;BME280;3876;42.204;24.686;2023-05-22T11:37:30;99079.75;;;25.19;68.86
7668;BME280;3876;42.204;24.686;2023-05-22T11:40:02;99093.78;;;25.28;71.13
7668;BME280;3876;42.204;24.686;2023-05-22T11:42:30;99096.22;;;25.12;69.34
7668;BME280;3876;42.204;24.686;2023-05-22T11:44:57;99101.91;;;25.07;70.76
7668;BME280;3876;42.204;24.686;2023-05-22T11:47:26;99103.59;;;24.98;70.73
7668;BME280;3876;42.204;24.686;2023-05-22T11:49:53;99117.41;;;25.00;72.14
7668;BME280;3876;42.204;24.686;2023-05-22T11:52:21;99124.19;;;24.93;71.19
7668;BME280;3876;42.204;24.686;2023-05-22T11:54:50;99140.13;;;24.44;73.29
7668;BME280;3876;42.204;24.686;2023-05-22T11:57:19;99147.81;;;23.88;75.33
7668;BME280;3876;42.204;24.686;2023-05-22T11:59:46;99160.28;;;23.16;77.61
7668;BME280;3876;42.204;24.686;2023-05-22T12:02:14;99152.06;;;22.37;86.78
7668;BME280;3876;42.204;24.686;2023-05-22T12:04:41;99163.78;;;21.68;92.46
7668;BME280;3876;42.204;24.686;2023-05-22T12:07:08;99172.38;;;21.26;85.01
7668;BME280;3876;42.204;24.686;2023-05-22T12:09:37;99145.25;;;21.28;71.67
7668;BME280;3876;42.204;24.686;2023-05-22T12:12:04;99165.25;;;21.61;74.22
7668;BME280;3876;42.204;24.686;2023-05-22T12:14:33;99155.00;;;21.69;81.78
7668;BME280;3876;42.204;24.686;2023-05-22T12:17:00;99131.75;;;21.77;88.64
7668;BME280;3876;42.204;24.686;2023-05-22T12:19:28;99127.25;;;21.90;89.42
7668;BME280;3876;42.204;24.686;2023-05-22T12:21:56;99128.97;;;22.01;91.11
7668;BME280;3876;42.204;24.686;2023-05-22T12:24:24;99125.50;;;22.12;90.52
7668;BME280;3876;42.204;24.686;2023-05-22T12:26:51;99118.94;;;22.17;87.23
7668;BME280;3876;42.204;24.686;2023-05-22T12:29:20;99109.13;;;22.10;90.01
7668;BME280;3876;42.204;24.686;2023-05-22T12:31:49;99098.03;;;21.96;91.41
7668;BME280;3876;42.204;24.686;2023-05-22T12:34:17;99082.03;;;21.79;91.94
7668;BME280;3876;42.204;24.686;2023-05-22T12:36:45;99094.84;;;21.93;92.38
7668;BME280;3876;42.204;24.686;2023-05-22T12:39:16;99098.97;;;21.95;91.30
7668;BME280;3876;42.204;24.686;2023-05-22T12:41:43;99101.47;;;21.97;91.47
7668;BME280;3876;42.204;24.686;2023-05-22T12:44:10;99115.47;;;21.96;90.64
7668;BME280;3876;42.204;24.686;2023-05-22T12:46:37;99110.72;;;21.58;92.89
7668;BME280;3876;42.204;24.686;2023-05-22T12:49:05;99104.66;;;21.58;95.64
7668;BME280;3876;42.204;24.686;2023-05-22T12:51:33;99101.91;;;21.59;94.62
7668;BME280;3876;42.204;24.686;2023-05-22T12:54:00;99103.56;;;21.60;96.01
7668;BME280;3876;42.204;24.686;2023-05-22T12:56:28;99095.50;;;21.52;96.09
7668;BME280;3876;42.204;24.686;2023-05-22T12:58:55;99091.22;;;21.62;95.59
7668;BME280;3876;42.204;24.686;2023-05-22T13:01:25;99083.97;;;21.77;100.00
7668;BME280;3876;42.204;24.686;2023-05-22T13:03:52;99078.59;;;21.89;100.00
7668;BME280;3876;42.204;24.686;2023-05-22T13:06:20;99074.88;;;22.03;100.00
7668;BME280;3876;42.204;24.686;2023-05-22T13:08:47;99081.53;;;22.17;100.00
7668;BME280;3876;42.204;24.686;2023-05-22T13:11:14;99084.09;;;22.28;97.02
7668;BME280;3876;42.204;24.686;2023-05-22T13:13:41;99099.78;;;22.28;93.48
7668;BME280;3876;42.204;24.686;2023-05-22T13:16:08;99103.72;;;22.43;97.36
7668;BME280;3876;42.204;24.686;2023-05-22T13:18:35;99102.00;;;22.53;93.43
7668;BME280;3876;42.204;24.686;2023-05-22T13:21:02;99105.00;;;22.69;89.46
7668;BME280;3876;42.204;24.686;2023-05-22T13:23:30;99099.56;;;22.82;88.85
7668;BME280;3876;42.204;24.686;2023-05-22T13:25:57;99099.25;;;22.75;84.98
7668;BME280;3876;42.204;24.686;2023-05-22T13:28:26;99098.66;;;22.92;83.78
7668;BME280;3876;42.204;24.686;2023-05-22T13:30:53;99091.66;;;22.93;81.67